Latest Weather Observations for Parafield

IDS60901

Issued at 8:41 pm CDT Tuesday 6 December 2016 (issued every 10 minutes, with the page automatically refreshed every 10 minutes)

About weather observations | Map of Adelaide area stations | Latest observations for Adelaide area | Other Formats
Station Details ID: 023013 Name: PARAFIELD AIRPORT Lat: -34.80 Lon: 138.63 Height: 9.5 m
Data from the previous 72 hours. | See also: Recent months at Parafield
Date/Time
CDT
Temp
°C
App
Temp
°C
Dew
Point
°C
Rel
Hum
%
Delta-T
°C
Wind Press
QNH
hPa
Press
MSL
hPa
Rain since
9am
mm
Dir  Spd
km/h
Gust
km/h
Spd
kts
Gust
kts
06/08:30pm 17.1 15.2 9.0 59 4.2 SW 9 11 5 6 1015.8 1015.8 0.0
06/08:00pm 18.7 17.1 8.9 53 5.1 SW 7 11 4 6 1015.5 1015.5 0.0
06/07:30pm 20.6 18.7 9.2 48 6.0 WSW 9 11 5 6 1015.3 1015.3 0.0
06/07:00pm 20.9 18.2 8.9 46 6.3 WSW 13 19 7 10 1015.4 1015.4 0.0
06/06:30pm 21.5 18.5 7.7 41 7.2 WSW 13 20 7 11 1015.0 1015.0 0.0
06/06:00pm 22.0 19.1 8.2 41 7.2 WSW 13 19 7 10 1014.8 1014.8 0.0
06/05:30pm 21.9 18.5 7.7 40 7.4 WSW 15 22 8 12 1014.9 1014.9 0.0
06/05:00pm 22.5 19.7 8.6 41 7.4 WSW 13 17 7 9 1014.7 1014.7 0.0
06/04:30pm 22.5 19.8 9.0 42 7.2 WSW 13 22 7 12 1015.1 1015.1 0.0
06/04:00pm 22.2 18.3 8.7 42 7.2 W 19 30 10 16 1015.3 1015.3 0.0
06/03:30pm 22.0 18.4 8.2 41 7.2 SW 17 22 9 12 1015.4 1015.4 0.0
06/03:00pm 21.9 18.8 8.8 43 6.9 W 15 20 8 11 1015.7 1015.7 0.0
06/02:30pm 20.6 16.8 8.9 47 6.2 W 19 28 10 15 1016.1 1016.1 0.0
06/02:00pm 22.0 18.5 8.9 43 7.0 WSW 17 26 9 14 1015.8 1015.8 0.0
06/01:30pm 22.0 18.0 8.2 41 7.2 SW 19 28 10 15 1015.7 1015.7 0.0
06/01:00pm 22.2 17.9 6.8 37 7.9 W 19 26 10 14 1015.6 1015.6 0.0
06/12:30pm 21.4 18.0 7.6 41 7.1 WSW 15 22 8 12 1015.7 1015.7 0.0
06/12:00pm 20.6 15.9 6.2 39 7.2 WSW 20 28 11 15 1015.8 1015.8 0.0
06/11:30am 21.8 17.8 6.5 37 7.8 WNW 17 24 9 13 1015.8 1015.8 0.0
06/11:00am 21.1 18.5 9.4 47 6.2 W 13 24 7 13 1016.4 1016.4 0.0
06/10:30am 20.5 17.7 8.5 46 6.3 W 13 19 7 10 1016.2 1016.2 0.0
06/10:00am 20.2 17.9 7.6 44 6.5 W 9 17 5 9 1016.2 1016.2 0.0
06/09:30am 19.3 17.3 7.1 45 6.2 NW 7 13 4 7 1016.3 1016.3 0.0
06/09:00am 18.4 17.0 8.9 54 4.9 N 6 11 3 6 1016.0 1016.0 0.0
06/08:30am 17.5 15.9 8.9 57 4.4 NE 7 9 4 5 1015.9 1015.9 0.0
06/08:00am 16.1 16.3 10.4 69 3.0 CALM 0 4 0 2 1016.0 1016.0 0.0
06/07:30am 14.4 14.2 11.7 84 1.4 N 4 7 2 4 1015.9 1015.9 0.0
06/07:00am 12.3 12.5 10.4 88 1.0 CALM 0 0 0 0 1015.6 1015.6 0.0
06/06:30am 11.9 12.0 10.1 89 0.9 CALM 0 0 0 0 1015.0 1015.0 0.0
06/06:00am 11.3 11.1 9.2 87 1.0 CALM 0 0 0 0 1014.0 1014.0 0.0
06/05:30am 12.9 12.9 9.9 82 1.5 CALM 0 0 0 0 1013.7 1013.7 0.0
06/05:00am 13.0 13.0 9.8 81 1.6 CALM 0 0 0 0 1013.5 1013.5 0.0
06/04:30am 13.2 12.1 10.0 81 1.6 E 6 7 3 4 1013.4 1013.4 0.0
06/04:00am 13.0 12.6 9.8 81 1.6 ESE 2 6 1 3 1013.7 1013.7 0.0
06/03:30am 13.4 13.4 9.8 79 1.8 CALM 0 0 0 0 1013.9 1013.9 0.0
06/03:00am 13.9 13.9 9.9 77 2.1 CALM 0 0 0 0 1013.6 1013.6 0.0
06/02:30am 14.0 12.7 9.2 73 2.4 E 6 7 3 4 1013.2 1013.2 0.0
06/02:00am 13.8 13.3 9.3 74 2.3 ESE 2 7 1 4 1013.3 1013.3 0.0
06/01:30am 13.8 12.8 9.0 73 2.4 SSE 4 6 2 3 1013.5 1013.5 0.0
06/01:00am 14.0 12.7 9.2 73 2.4 S 6 7 3 4 1014.0 1014.0 0.0
06/12:30am 14.4 13.0 9.4 72 2.6 SE 7 11 4 6 1013.7 1013.7 0.0
06/12:00am 14.4 13.1 9.2 71 2.7 SE 6 9 3 5 1014.3 1014.3 0.0
 
Date/Time
CDT
Temp
°C
App
Temp
°C
Dew
Point
°C
Rel
Hum
%
Delta-T
°C
Wind Press
QNH
hPa
Press
MSL
hPa
Rain since
9am
mm
Dir  Spd
km/h
Gust
km/h
Spd
kts
Gust
kts
05/11:30pm 15.2 13.4 9.3 68 3.0 ESE 9 11 5 6 1014.1 1014.1 0.0
05/11:00pm 15.4 13.6 9.5 68 3.0 SE 9 11 5 6 1014.6 1014.6 0.0
05/10:30pm 15.8 13.2 9.2 65 3.4 SE 13 17 7 9 1014.1 1014.1 0.0
05/10:00pm 16.1 14.2 9.1 63 3.6 SE 9 13 5 7 1014.4 1014.4 0.0
05/09:30pm 16.8 14.8 8.8 59 4.1 ESE 9 15 5 8 1014.2 1014.2 0.0
05/09:00pm 17.1 14.3 8.5 57 4.4 ESE 13 19 7 10 1013.2 1013.2 0.0
05/08:30pm 17.4 13.8 8.3 55 4.7 ESE 17 28 9 15 1013.0 1013.0 0.0
05/08:00pm 18.0 13.1 8.6 54 4.9 ESE 24 32 13 17 1011.9 1011.9 0.0
05/07:30pm 18.5 17.9 10.3 59 4.4 W 4 6 2 3 1012.1 1012.1 0.0
05/07:00pm 18.7 16.4 10.5 59 4.4 S 13 15 7 8 1011.9 1011.9 0.0
05/06:30pm 19.0 15.4 10.0 56 4.8 SW 19 24 10 13 1013.3 1013.3 0.0
05/06:00pm 19.6 16.7 9.5 52 5.4 SW 15 20 8 11 1012.9 1012.9 0.0
05/05:30pm 20.2 16.9 9.7 51 5.6 SW 17 22 9 12 1012.2 1012.2 0.0
05/05:00pm 21.0 17.9 10.2 50 5.8 SSW 17 24 9 13 1011.9 1011.9 0.0
05/04:30pm 20.4 16.5 9.6 50 5.8 SW 20 28 11 15 1012.8 1012.8 0.0
05/04:00pm 20.6 15.9 9.2 48 6.0 SW 24 30 13 16 1013.3 1013.3 0.0
05/03:30pm 22.0 17.7 9.5 45 6.7 WSW 22 30 12 16 1013.3 1013.3 0.0
05/03:00pm 20.9 17.1 9.2 47 6.2 SW 19 26 10 14 1013.1 1013.1 0.0
05/02:30pm 20.2 16.3 9.5 50 5.7 WSW 20 28 11 15 1013.5 1013.5 0.0
05/02:00pm 20.6 16.7 9.5 49 5.9 WSW 20 26 11 14 1013.6 1013.6 0.0
05/01:30pm 20.9 17.7 9.8 49 6.0 W 17 24 9 13 1014.0 1014.0 0.0
05/01:00pm 20.5 16.6 9.4 49 5.9 SW 20 26 11 14 1014.2 1014.2 0.0
05/12:30pm 20.0 16.2 9.9 52 5.4 SW 20 30 11 16 1013.9 1013.9 0.0
05/12:00pm 21.1 17.2 9.4 47 6.2 SSW 20 28 11 15 1013.2 1013.2 0.0
05/11:30am 19.9 16.7 8.3 47 6.0 S 15 24 8 13 1013.6 1013.6 0.0
05/11:00am 20.1 16.6 8.8 48 5.9 S 17 24 9 13 1014.3 1014.3 0.0
05/10:30am 19.8 16.6 8.5 48 5.9 SSE 15 20 8 11 1014.7 1014.7 0.0
05/10:00am 19.0 16.5 8.4 50 5.5 SW 11 19 6 10 1014.6 1014.6 0.0
05/09:30am 18.8 16.0 8.5 51 5.3 SSW 13 26 7 14 1014.6 1014.6 0.0
05/09:00am 18.4 14.4 8.4 52 5.2 SSE 19 26 10 14 1013.8 1013.8 2.4
05/08:30am 17.7 13.8 8.6 55 4.7 SSE 19 28 10 15 1014.1 1014.1 2.4
05/08:00am 17.0 13.2 8.9 59 4.2 S 19 22 10 12 1014.0 1014.0 2.4
05/07:30am 16.3 13.3 9.3 63 3.6 SSE 15 20 8 11 1013.7 1013.7 2.4
05/07:00am 15.4 13.3 9.7 69 3.0 SSE 11 15 6 8 1013.2 1013.2 2.4
05/06:30am 13.9 11.9 10.1 78 2.0 S 11 13 6 7 1012.8 1012.8 2.4
05/06:00am 13.0 10.9 9.6 80 1.7 SSE 11 13 6 7 1012.6 1012.6 2.4
05/05:30am 13.2 11.1 9.8 80 1.7 S 11 17 6 9 1012.0 1012.0 2.4
05/05:00am 14.2 11.9 10.4 78 2.0 S 13 20 7 11 1011.5 1011.5 2.4
05/04:30am 14.3 12.0 10.3 77 2.1 SSW 13 17 7 9 1011.7 1011.7 2.4
05/04:00am 15.0 11.6 10.6 75 2.3 SSW 19 26 10 14 1011.3 1011.3 2.4
05/03:30am 15.6 13.1 11.2 75 2.4 SW 15 20 8 11 1011.1 1011.1 2.4
05/03:00am 15.6 12.6 10.8 73 2.6 SW 17 26 9 14 1011.0 1011.0 2.4
05/02:30am 16.2 13.3 12.2 77 2.2 SW 19 24 10 13 1010.8 1010.8 2.4
05/02:00am 16.3 13.8 12.3 77 2.2 SSW 17 22 9 12 1010.5 1010.5 2.4
05/01:30am 16.9 13.9 12.6 76 2.4 SSW 20 32 11 17 1010.6 1010.6 2.4
05/01:13am 17.5 14.8 12.8 74 2.6 SW 19 26 10 14 1010.6 1010.6 2.4
05/01:00am 17.5 14.3 13.2 76 2.4 SSW 22 32 12 17 1010.6 1010.6 2.4
05/12:30am 17.9 15.4 14.2 79 2.1 SSW 20 28 11 15 1010.4 1010.4 2.4
05/12:00am 18.0 15.3 14.5 80 2.0 SSW 22 32 12 17 1009.6 1009.6 2.4
 
Date/Time
CDT
Temp
°C
App
Temp
°C
Dew
Point
°C
Rel
Hum
%
Delta-T
°C
Wind Press
QNH
hPa
Press
MSL
hPa
Rain since
9am
mm
Dir  Spd
km/h
Gust
km/h
Spd
kts
Gust
kts
04/11:30pm 18.4 15.3 15.5 83 1.7 SSW 26 39 14 21 1009.2 1009.2 2.4
04/11:00pm 18.8 15.5 16.0 84 1.7 SW 28 41 15 22 1008.9 1008.9 2.4
04/10:41pm 19.5 16.3 16.3 82 1.9 SW 28 39 15 21 1008.8 1008.8 2.4
04/10:30pm 20.0 18.2 16.0 78 2.4 SW 20 39 11 21 1008.4 1008.4 2.4
04/10:00pm 20.6 18.8 15.6 73 3.0 SW 19 26 10 14 1007.8 1007.8 2.4
04/09:30pm 21.5 19.6 15.1 67 3.8 SSW 19 30 10 16 1007.3 1007.3 2.4
04/09:00pm 22.3 19.6 15.6 66 4.0 SSW 24 32 13 17 1006.6 1006.6 2.4
04/08:31pm 26.6 24.6 17.4 57 5.8 W 24 52 13 28 1005.7 1005.7 2.4
04/08:30pm 26.8 24.8 17.3 56 6.0 W 24 39 13 21 1005.6 1005.6 2.4
04/08:00pm 26.9 25.7 17.4 56 6.0 WNW 20 26 11 14 1004.3 1004.3 2.4
04/07:30pm 28.6 26.7 16.8 48 7.4 NW 22 35 12 19 1003.7 1003.7 2.4
04/07:11pm 29.1 28.6 17.0 48 7.6 WNW 15 35 8 19 1003.6 1003.6 2.4
04/07:00pm 29.5 30.2 17.0 47 7.9 NW 9 11 5 6 1003.2 1003.2 2.4
04/06:30pm 29.8 29.2 16.6 45 8.3 NNW 15 20 8 11 1003.0 1003.0 2.4
04/06:00pm 29.7 28.1 16.5 45 8.3 N 20 30 11 16 1002.4 1002.4 2.4
04/05:30pm 29.7 28.1 16.5 45 8.3 N 20 30 11 16 1002.6 1002.6 2.4
04/05:00pm 29.3 28.0 17.2 48 7.6 N 20 28 11 15 1002.7 1002.7 2.4
04/04:30pm 28.1 27.8 18.2 55 6.3 NNE 17 24 9 13 1003.2 1003.2 2.4
04/04:00pm 27.8 26.4 17.9 54 6.3 NNE 22 32 12 17 1003.7 1003.7 2.4
04/03:30pm 27.5 25.6 18.5 58 5.8 NNE 26 41 14 22 1003.8 1003.8 2.4
04/03:00pm 27.2 27.0 19.3 62 5.1 NE 19 24 10 13 1004.4 1004.4 2.4
04/02:30pm 25.5 25.4 19.6 70 3.8 N 19 30 10 16 1005.5 1005.5 2.4
04/02:00pm 24.9 25.0 19.9 74 3.2 NNE 19 24 10 13 1006.0 1006.0 2.4
04/01:30pm 23.6 23.6 20.1 81 2.3 NNE 20 24 11 13 1006.6 1006.6 2.4
04/01:00pm 23.1 23.7 21.0 88 1.4 NNE 19 24 10 13 1007.9 1007.9 2.4
04/12:30pm 22.6 24.2 20.7 89 1.2 NNE 13 19 7 10 1008.5 1008.5 1.8
04/12:00pm 22.2 23.6 20.3 89 1.2 NNE 13 17 7 9 1008.8 1008.8 1.4
04/11:30am 22.4 23.2 19.8 85 1.7 NNE 15 22 8 12 1008.9 1008.9 0.8
04/11:00am 22.3 22.7 19.1 82 2.0 NNE 15 19 8 10 1009.3 1009.3 0.6
04/10:30am 22.2 22.9 18.8 81 2.1 N 13 17 7 9 1009.4 1009.4 0.4
04/10:00am 22.3 22.1 18.5 79 2.4 NNE 17 20 9 11 1009.5 1009.5 0.2
04/09:30am 22.5 21.6 18.1 76 2.8 N 20 28 11 15 1009.8 1009.8 0.0
04/09:00am 23.5 18.7 16.5 65 4.3 NNW 37 57 20 31 1009.8 1009.8 0.0
04/08:33am 24.6 20.7 14.4 53 6.0 N 28 54 15 29 1008.7 1008.7 0.0
04/08:30am 26.0 22.4 11.7 41 8.2 N 22 35 12 19 1008.6 1008.6 0.0
04/08:00am 25.9 21.8 8.0 32 9.6 NNE 19 24 10 13 1008.0 1008.0 0.0
04/07:30am 24.7 19.5 7.4 33 9.1 N 24 32 13 17 1007.7 1007.7 0.0
04/07:00am 20.5 19.5 10.3 52 5.5 NNW 6 17 3 9 1007.1 1007.1 0.0
04/06:30am 18.4 17.5 11.5 64 3.8 W 7 9 4 5 1006.2 1006.2 0.0
04/06:00am 17.9 18.2 10.8 63 3.8 CALM 0 0 0 0 1006.1 1006.1 0.0
04/05:30am 17.0 16.1 10.6 66 3.4 E 6 11 3 6 1006.3 1006.3 0.0
04/05:00am 16.6 16.1 10.9 69 3.1 N 4 9 2 5 1006.3 1006.3 0.0
04/04:30am 17.5 17.8 10.9 65 3.6 CALM 0 0 0 0 1006.5 1006.5 0.0
04/04:00am 16.4 16.3 10.7 69 3.0 WNW 2 6 1 3 1006.6 1006.6 0.0
04/03:30am 15.8 15.1 9.9 68 3.1 NNE 4 7 2 4 1006.8 1006.8 0.0
04/03:00am 16.0 16.0 9.7 66 3.3 CALM 0 0 0 0 1007.2 1007.2 0.0
04/02:30am 17.5 17.6 10.1 62 3.9 CALM 0 0 0 0 1008.1 1008.1 0.0
04/02:00am 17.5 17.4 9.4 59 4.2 CALM 0 0 0 0 1008.4 1008.4 0.0
04/01:30am 19.4 17.4 10.1 55 5.0 NNE 11 13 6 7 1008.8 1008.8 0.0
04/01:00am 18.9 17.5 11.0 60 4.3 N 9 13 5 7 1009.0 1009.0 0.0
04/12:30am 17.3 15.6 10.0 62 3.9 S 9 11 5 6 1008.8 1008.8 0.0
04/12:00am 17.6 17.6 9.8 60 4.1 CALM 0 0 0 0 1009.2 1009.2 0.0
 
Date/Time
CDT
Temp
°C
App
Temp
°C
Dew
Point
°C
Rel
Hum
%
Delta-T
°C
Wind Press
QNH
hPa
Press
MSL
hPa
Rain since
9am
mm
Dir  Spd
km/h
Gust
km/h
Spd
kts
Gust
kts
03/11:30pm 19.1 18.3 9.6 54 5.0 N 4 7 2 4 1009.5 1009.5 0.0
03/11:00pm 20.0 19.1 10.7 55 5.1 WNW 6 9 3 5 1009.5 1009.5 0.0
03/10:30pm 19.1 16.7 9.9 55 4.9 SSW 13 13 7 7 1009.4 1009.4 0.0
03/10:00pm 20.1 18.7 9.4 50 5.7 SW 7 7 4 4 1009.9 1009.9 0.0
03/09:30pm 21.5 20.1 9.4 46 6.5 WSW 7 7 4 4 1010.3 1010.3 0.0
03/09:00pm 22.4 21.1 9.2 43 7.1 SW 6 7 3 4 1010.6 1010.6 0.0

Latest Capital City Observations: Canberra | Sydney | Melbourne | Brisbane | Adelaide | Perth | Hobart | Darwin

Other Formats:

Comma delimited format used in spreadsheet applications
http://www.bom.gov.au/fwo/IDS60901/IDS60901.95677.axf

JavaScript Object Notation format (JSON) in row-major order
http://www.bom.gov.au/fwo/IDS60901/IDS60901.95677.json